-16.76C
пасмурно
пасмурно
Дата и времяТемператураДавление, мм рт.ст.Влажность, %Осадки
МинимумМаксимум
04.12.2022 17:00-20.58C-18.03C776100пасмурно
04.12.2022 20:00-23.09C-20.98C777100облачно с прояснениями
04.12.2022 23:00-24.31C-24.31C779100облачно с прояснениями
05.12.2022 02:00-20.08C-20.08C78099пасмурно
05.12.2022 05:00-20.08C-20.08C77999пасмурно
05.12.2022 08:00-17.83C-17.83C77997пасмурно
05.12.2022 11:00-15.98C-15.98C77996пасмурно
05.12.2022 14:00-13.5C-13.5C77896пасмурно
05.12.2022 17:00-12.41C-12.41C77796небольшой снег
05.12.2022 20:00-11.18C-11.18C77796небольшой снег
05.12.2022 23:00-10.29C-10.29C77796небольшой снег
06.12.2022 02:00-12.73C-12.73C77796пасмурно
06.12.2022 05:00-15.65C-15.65C77797пасмурно
06.12.2022 08:00-15.38C-15.38C77697пасмурно
06.12.2022 11:00-13.34C-13.34C77796небольшой снег
06.12.2022 14:00-13.91C-13.91C77696пасмурно
06.12.2022 17:00-18.07C-18.07C77797пасмурно
06.12.2022 20:00-19.85C-19.85C77698облачно с прояснениями
06.12.2022 23:00-20.2C-20.2C77599облачно с прояснениями
07.12.2022 02:00-20.15C-20.15C77499облачно с прояснениями
07.12.2022 05:00-18.31C-18.31C77396пасмурно
07.12.2022 08:00-18.09C-18.09C77296пасмурно
07.12.2022 11:00-16.79C-16.79C77195пасмурно
07.12.2022 14:00-15.6C-15.6C76894пасмурно
07.12.2022 17:00-14.96C-14.96C76794пасмурно
07.12.2022 20:00-14.29C-14.29C76594пасмурно
07.12.2022 23:00-13.79C-13.79C76393небольшой снег
08.12.2022 02:00-13.03C-13.03C76292небольшой снег
08.12.2022 05:00-13.16C-13.16C76294пасмурно
08.12.2022 08:00-13.71C-13.71C76295небольшой снег
08.12.2022 11:00-13.81C-13.81C76296пасмурно
08.12.2022 14:00-15.84C-15.84C76397пасмурно
08.12.2022 17:00-18.05C-18.05C76398пасмурно
08.12.2022 20:00-16.84C-16.84C76395пасмурно
08.12.2022 23:00-15.57C-15.57C76394пасмурно
09.12.2022 02:00-14.87C-14.87C76294пасмурно
09.12.2022 05:00-14.19C-14.19C76295небольшой снег
09.12.2022 08:00-13.51C-13.51C76195небольшой снег
09.12.2022 11:00-15.9C-15.9C76291небольшой снег
09.12.2022 14:00-25.08C-25.08C76588переменная облачность
Дата и время наблюдения: 04.12.2022 14:11:09